Accueil
METAR-TAF:

METAR-TAF

Aéroports :

Base aérienne de Coxyde

Coxyde, Belgique

latitude: 51-05N, longitude: 002-39E, altitude: 4 m

Observation

Le bulletin a été fait il y a 41 minutes, à 14:55 UTC
Vent 6 kt de sud/sud-ouest
Température 4°C
Humidité 75%
Pression 1021 hPa
Visibilité 10 km ou plus
Quelques nuages à une hauteur de 2200 ft
Nuages fragmentés à une hauteur de 25000 ft

METAR: EBFN 211455Z 21006KT 9999 FEW022 BKN250 04/M00 Q1021 BLU BLU

Heure: 16:36 (15:36 UTC)

Prévision

Le bulletin a été fait il y a 3 heures et 55 minutes, à 11:41 UTC
Prévision valable du 21 à 13 UTC au 21 à 22 UTC
Vent 8 kt de sud-ouest
Visibilité 10 km ou plus
Quelques nuages à une hauteur de 1500 ft
Nuages épars à une hauteur de 28000 ft

TAF: EBFN 211141Z 2113/2122 22008KT 9999 FEW015 SCT280

Observations et prévisions météorologiques de plus de 4000 aéroports (messages METAR et TAF).

Les stations disponibles sont représentées par des disques jaunes et rouges sur la carte.

Passer la souris dessus pour voir le nom de la station.

Cliquer dessus pour voir les observations et prévisions météorologiques.

Pour changer de carte: cliquez sur les boutons verts avec une croix noire pour zoomer, sur le bouton vert avec un tiret pour effectuer un zoom arrière, ou sur les flèches vertes pour les cartes adjacentes.


METAR-TAF: